Time;durP1;ratioP1;P1;durP2;ratioP2;P2;SDS_P1;SDS_P2;PMS_P1;PMS_P2;Temp;Humidity;BMP_temperature;BMP_pressure;BME280_temperature;BME280_humidity;BME280_pressure;Samples;Min_cycle;Max_cycle;Signal;HPM_P1;HPM_P2
2021/10/16 00:02:21;;;;;;;0.70;0.50;;;22.90;38.00;20.20;94096.00;;;;10540501;27;48028;-62
2021/10/16 00:07:21;;;;;;;1.13;0.47;;;22.90;38.10;20.10;94101.00;;;;10556845;27;71586;-62
2021/10/16 00:12:22;;;;;;;0.70;0.50;;;22.90;38.10;20.20;94091.00;;;;10556351;27;75349;-62
2021/10/16 00:17:23;;;;;;;0.40;0.40;;;22.90;38.00;20.20;94095.00;;;;10538470;27;73567;-62
2021/10/16 00:22:24;;;;;;;1.48;0.40;;;22.90;37.90;20.10;94098.00;;;;10556744;27;73343;-63
2021/10/16 00:27:26;;;;;;;0.47;0.40;;;22.90;37.90;20.20;94094.00;;;;10573001;27;47499;-63
2021/10/16 00:32:27;;;;;;;0.65;0.32;;;22.90;37.90;20.20;94085.00;;;;10557458;27;46728;-63
2021/10/16 00:37:27;;;;;;;1.20;0.40;;;22.90;37.90;20.10;94099.00;;;;10554926;27;74143;-62
2021/10/16 00:42:28;;;;;;;1.25;0.70;;;22.90;37.80;20.20;94095.00;;;;10557522;27;75464;-63
2021/10/16 00:47:29;;;;;;;0.50;0.40;;;22.90;37.80;20.10;94106.00;;;;10557323;27;46478;-63
2021/10/16 00:52:29;;;;;;;0.88;0.50;;;22.90;37.90;20.20;94108.00;;;;10539707;27;47476;-63
2021/10/16 00:57:31;;;;;;;0.90;0.50;;;22.90;37.80;20.10;94101.00;;;;10537818;27;56928;-64
2021/10/16 01:02:33;;;;;;;0.80;0.50;;;22.90;37.80;20.10;94111.00;;;;10555964;27;75621;-63
2021/10/16 01:07:36;;;;;;;0.80;0.50;;;22.90;37.70;20.10;94109.00;;;;10544426;27;48216;-63
2021/10/16 01:12:39;;;;;;;2.13;0.40;;;22.90;37.80;20.20;94104.00;;;;10563456;27;47487;-63
2021/10/16 01:17:41;;;;;;;0.98;0.57;;;22.90;37.70;20.10;94083.00;;;;10562710;27;45354;-63
2021/10/16 01:22:44;;;;;;;0.80;0.68;;;22.90;37.70;20.10;94096.00;;;;10563591;27;45544;-63
2021/10/16 01:27:46;;;;;;;0.93;0.60;;;22.90;37.70;20.10;94097.00;;;;10562528;27;46172;-63
2021/10/16 01:32:48;;;;;;;1.10;0.60;;;22.90;37.70;20.10;94081.00;;;;10562921;27;45489;-63
2021/10/16 01:37:50;;;;;;;0.82;0.50;;;22.90;37.60;20.10;94078.00;;;;10561813;27;53235;-63
2021/10/16 01:42:52;;;;;;;0.80;0.43;;;22.90;37.60;20.10;94070.00;;;;10563564;27;53876;-63
2021/10/16 01:47:54;;;;;;;0.82;0.40;;;22.90;37.50;20.10;94083.00;;;;10544714;27;48184;-63
2021/10/16 01:52:55;;;;;;;0.60;0.40;;;22.90;37.60;20.10;94071.00;;;;10562220;27;54215;-62
2021/10/16 01:58:12;;;;;;;0.85;0.40;;;22.90;37.50;20.10;94069.00;;;;10563189;27;46396;-63
2021/10/16 02:03:13;;;;;;;1.63;0.50;;;22.90;37.50;20.10;94073.00;;;;10561865;27;45291;-63
2021/10/16 02:08:14;;;;;;;0.95;0.52;;;22.90;37.50;20.10;94066.00;;;;10561122;27;52277;-63
2021/10/16 02:13:15;;;;;;;1.00;0.52;;;22.80;37.40;20.10;94074.00;;;;10543573;27;70518;-63
2021/10/16 02:18:15;;;;;;;0.77;0.43;;;22.80;37.40;20.10;94077.00;;;;10543285;27;48548;-63
2021/10/16 02:23:16;;;;;;;0.43;0.40;;;22.90;37.40;20.10;94070.00;;;;10560492;27;74870;-63
2021/10/16 02:28:17;;;;;;;0.73;0.43;;;22.90;37.40;20.10;94080.00;;;;10560038;27;74747;-63
2021/10/16 02:33:17;;;;;;;0.82;0.50;;;22.90;37.40;20.10;94072.00;;;;10542703;27;74049;-63
2021/10/16 02:38:18;;;;;;;0.75;0.45;;;22.90;37.40;20.10;94081.00;;;;10560676;27;75445;-63
2021/10/16 02:43:19;;;;;;;0.40;0.40;;;22.80;37.30;20.10;94069.00;;;;10559328;27;75329;-63
2021/10/16 02:48:19;;;;;;;0.50;0.40;;;22.90;37.30;20.10;94071.00;;;;10561446;27;45386;-63
2021/10/16 02:53:20;;;;;;;0.57;0.50;;;22.80;37.30;20.10;94088.00;;;;10560426;27;75266;-63
2021/10/16 02:58:21;;;;;;;0.45;0.40;;;22.80;37.30;20.10;94079.00;;;;10558186;27;75414;-63
2021/10/16 03:03:21;;;;;;;0.40;0.40;;;22.80;37.30;20.10;94077.00;;;;10558927;27;75132;-63
2021/10/16 03:08:22;;;;;;;0.57;0.43;;;22.90;37.30;20.10;94077.00;;;;10541206;27;74544;-63
2021/10/16 03:13:23;;;;;;;2.00;0.50;;;22.80;37.30;20.10;94067.00;;;;10541825;27;74635;-63
2021/10/16 03:18:23;;;;;;;0.65;0.47;;;22.80;37.20;20.10;94079.00;;;;10557956;27;75424;-63
2021/10/16 03:23:24;;;;;;;1.38;0.40;;;22.80;37.30;20.10;94092.00;;;;10557666;27;75520;-63
2021/10/16 03:28:26;;;;;;;0.68;0.40;;;22.80;37.30;20.10;94086.00;;;;10557910;27;75226;-63
2021/10/16 03:33:26;;;;;;;0.80;0.40;;;22.80;37.20;20.10;94083.00;;;;10558435;27;49659;-63
2021/10/16 03:38:27;;;;;;;0.20;0.20;;;22.80;37.20;20.10;94073.00;;;;10556801;27;74022;-63
2021/10/16 03:43:28;;;;;;;0.25;0.25;;;22.80;37.20;20.10;94085.00;;;;10558900;27;74659;-63
2021/10/16 03:48:28;;;;;;;0.40;0.25;;;22.80;37.20;20.10;94074.00;;;;10558707;27;75107;-63
2021/10/16 03:53:29;;;;;;;0.32;0.20;;;22.80;37.20;20.10;94073.00;;;;10557945;27;64674;-63
2021/10/16 03:58:30;;;;;;;0.40;0.38;;;22.80;37.20;20.10;94069.00;;;;10558166;27;57183;-63
2021/10/16 04:03:31;;;;;;;0.45;0.30;;;22.80;37.20;20.10;94077.00;;;;10537692;27;48032;-63
2021/10/16 04:08:32;;;;;;;0.40;0.32;;;22.80;37.20;20.10;94083.00;;;;10554116;27;47020;-63
2021/10/16 04:13:32;;;;;;;0.60;0.30;;;22.90;37.20;20.10;94065.00;;;;10541220;27;47351;-63
2021/10/16 04:18:33;;;;;;;0.38;0.28;;;22.80;37.10;20.20;94077.00;;;;10556837;27;75409;-63
2021/10/16 04:23:34;;;;;;;0.30;0.20;;;22.80;37.10;20.20;94075.00;;;;10556868;27;64497;-63
2021/10/16 04:28:34;;;;;;;0.30;0.30;;;22.90;37.00;20.20;94085.00;;;;10556028;27;74517;-63
2021/10/16 04:33:35;;;;;;;0.50;0.40;;;22.90;37.00;20.20;94077.00;;;;10538766;27;75520;-63
2021/10/16 04:38:36;;;;;;;0.25;0.20;;;22.90;37.00;20.20;94100.00;;;;10562690;27;75153;-63
2021/10/16 04:43:41;;;;;;;0.45;0.40;;;22.90;36.80;20.20;94081.00;;;;10548246;27;47248;-63
2021/10/16 04:48:43;;;;;;;0.28;0.25;;;22.90;36.90;20.20;94076.00;;;;10547137;27;47194;-63
2021/10/16 04:53:44;;;;;;;0.45;0.25;;;22.90;36.80;20.20;94075.00;;;;10547194;27;47378;-63
2021/10/16 04:58:44;;;;;;;0.55;0.40;;;22.90;36.80;20.20;94076.00;;;;10545417;27;75281;-63
2021/10/16 05:03:45;;;;;;;0.30;0.28;;;22.90;36.70;20.10;94067.00;;;;10564372;27;73478;-63
2021/10/16 05:08:46;;;;;;;0.35;0.20;;;22.90;36.70;20.20;94090.00;;;;10563587;27;74595;-63
2021/10/16 05:13:47;;;;;;;0.22;0.20;;;22.90;36.80;20.10;94073.00;;;;10562864;27;72105;-63
2021/10/16 05:18:48;;;;;;;0.50;0.40;;;22.90;36.70;20.10;94083.00;;;;10562028;27;74456;-63
2021/10/16 05:23:48;;;;;;;0.30;0.30;;;22.90;36.70;20.10;94070.00;;;;10563458;27;47224;-63
2021/10/16 05:28:49;;;;;;;0.80;0.20;;;22.90;36.70;20.10;94067.00;;;;10563165;27;66405;-63
2021/10/16 05:33:50;;;;;;;0.20;0.20;;;22.90;36.80;20.10;94079.00;;;;10562146;27;59664;-65
2021/10/16 05:38:51;;;;;;;0.95;0.25;;;22.90;36.90;20.10;94079.00;;;;10544154;27;69836;-63
2021/10/16 05:43:52;;;;;;;0.60;0.30;;;22.90;36.80;20.10;94087.00;;;;10562769;27;45522;-63
2021/10/16 05:48:52;;;;;;;0.68;0.35;;;22.80;36.80;20.10;94091.00;;;;10544434;27;48459;-64
2021/10/16 05:53:53;;;;;;;0.47;0.30;;;22.90;36.80;20.10;94078.00;;;;10543915;27;74896;-63
2021/10/16 05:58:58;;;;;;;0.65;0.30;;;22.80;36.80;20.10;94099.00;;;;10543092;27;75602;-63
2021/10/16 06:03:59;;;;;;;1.15;0.40;;;22.90;36.90;20.10;94095.00;;;;10563222;27;46068;-63
2021/10/16 06:08:59;;;;;;;0.85;0.40;;;22.80;36.80;20.10;94093.00;;;;10560361;27;74631;-63
2021/10/16 06:14:01;;;;;;;0.77;0.30;;;22.80;36.80;20.10;94095.00;;;;10544350;27;46989;-63
2021/10/16 06:19:04;;;;;;;0.75;0.38;;;22.90;36.80;20.10;94103.00;;;;10543721;27;48304;-63
2021/10/16 06:24:05;;;;;;;0.63;0.20;;;22.90;36.80;20.10;94117.00;;;;10544225;27;47189;-63
2021/10/16 06:29:07;;;;;;;0.95;0.32;;;22.90;36.80;20.10;94095.00;;;;10543484;27;47890;-63
2021/10/16 06:34:07;;;;;;;0.73;0.38;;;22.90;36.80;20.10;94117.00;;;;10542300;27;68714;-64
2021/10/16 06:39:08;;;;;;;0.75;0.45;;;22.90;36.80;20.20;94116.00;;;;10560603;27;75567;-67
2021/10/16 06:44:09;;;;;;;1.42;0.60;;;22.90;36.90;20.20;94127.00;;;;10560923;27;45442;-66
2021/10/16 06:49:09;;;;;;;0.98;0.80;;;22.90;36.80;20.20;94132.00;;;;10542455;27;65730;-67
2021/10/16 06:54:12;;;;;;;2.25;0.88;;;22.90;36.80;20.10;94124.00;;;;10542233;27;75676;-66
2021/10/16 06:59:13;;;;;;;1.55;0.90;;;22.90;36.90;20.10;94117.00;;;;10558620;27;46374;-67
2021/10/16 07:04:13;;;;;;;2.08;1.00;;;22.90;36.90;20.10;94127.00;;;;10543003;27;47130;-66
2021/10/16 07:09:14;;;;;;;1.88;0.85;;;22.90;36.90;20.10;94142.00;;;;10559099;27;45397;-71
2021/10/16 07:14:15;;;;;;;2.20;1.05;;;22.90;37.00;20.10;94124.00;;;;10558623;27;75721;-67
2021/10/16 07:19:15;;;;;;;1.67;0.80;;;22.90;37.00;20.10;94136.00;;;;10540797;27;75356;-66
2021/10/16 07:24:17;;;;;;;3.53;1.10;;;22.90;37.00;20.20;94139.00;;;;10560132;27;46005;-63
2021/10/16 07:29:18;;;;;;;1.85;0.90;;;22.90;36.90;20.20;94138.00;;;;10538529;27;47207;-61
2021/10/16 07:34:20;;;;;;;2.53;1.02;;;22.90;37.00;20.20;94144.00;;;;10555542;27;74553;-63
2021/10/16 07:39:21;;;;;;;1.63;0.88;;;22.90;37.20;20.20;94136.00;;;;10541540;27;47507;-63
2021/10/16 07:44:21;;;;;;;1.23;0.90;;;22.90;37.10;20.20;94136.00;;;;10540419;27;75549;-64
2021/10/16 07:49:22;;;;;;;3.03;0.95;;;22.90;37.10;20.10;94153.00;;;;10559216;27;74623;-63
2021/10/16 07:54:22;;;;;;;4.53;0.98;;;22.90;37.20;20.20;94145.00;;;;10556831;27;75069;-63
2021/10/16 07:59:23;;;;;;;2.20;0.90;;;22.90;37.00;20.10;94155.00;;;;10556069;27;75294;-64
2021/10/16 08:04:24;;;;;;;2.15;1.00;;;22.90;37.10;20.20;94140.00;;;;10557348;27;73112;-64
2021/10/16 08:09:24;;;;;;;3.05;0.90;;;22.90;37.20;20.20;94148.00;;;;10558886;27;74157;-64
2021/10/16 08:14:25;;;;;;;3.45;1.02;;;22.90;37.20;20.10;94153.00;;;;10563346;27;73702;-63
2021/10/16 08:19:27;;;;;;;1.77;0.73;;;22.90;37.20;20.20;94158.00;;;;10558092;27;45428;-63
2021/10/16 08:24:28;;;;;;;2.88;0.80;;;22.90;37.20;20.20;94162.00;;;;10564022;27;45368;-63
2021/10/16 08:29:29;;;;;;;1.17;0.70;;;22.90;38.00;20.20;94165.00;;;;10561245;27;73371;-63
2021/10/16 08:34:29;;;;;;;1.55;0.70;;;22.90;37.30;20.20;94147.00;;;;10565262;27;63061;-63
2021/10/16 08:39:30;;;;;;;1.73;0.70;;;22.90;37.30;20.20;94154.00;;;;10564063;27;73923;-64
2021/10/16 08:44:31;;;;;;;1.45;0.70;;;22.90;37.30;20.20;94163.00;;;;10564334;27;59146;-63
2021/10/16 08:49:32;;;;;;;1.55;0.70;;;22.90;37.40;20.20;94166.00;;;;10563460;27;47168;-63
2021/10/16 08:54:39;;;;;;;2.22;0.98;;;22.90;37.30;20.20;94172.00;;;;10562844;27;45373;-62
2021/10/16 08:59:39;;;;;;;0.85;0.57;;;22.90;37.30;20.20;94168.00;;;;10563318;27;47521;-63
2021/10/16 09:04:40;;;;;;;1.05;0.55;;;22.90;37.30;20.20;94172.00;;;;10563091;27;52203;-63
2021/10/16 09:09:41;;;;;;;1.90;0.80;;;22.90;37.40;20.20;94171.00;;;;10563346;27;52150;-63
2021/10/16 09:14:50;;;;;;;1.10;0.57;;;22.90;37.50;20.20;94163.00;;;;10564073;27;45310;-63
2021/10/16 09:19:53;;;;;;;0.98;0.60;;;22.90;38.10;20.20;94139.00;;;;10562103;27;45514;-61
2021/10/16 09:24:54;;;;;;;1.10;0.60;;;22.90;37.50;20.30;94154.00;;;;10565669;27;45373;-66
2021/10/16 09:30:05;;;;;;;1.15;0.60;;;23.00;37.90;20.40;94166.00;;;;10561200;27;75971;-65
2021/10/16 09:35:12;;;;;;;4.03;0.70;;;23.10;38.40;20.40;94153.00;;;;10562040;27;45703;-67
2021/10/16 09:40:13;;;;;;;2.65;0.70;;;23.10;38.50;20.40;94158.00;;;;10582878;27;47069;-67
2021/10/16 09:45:15;;;;;;;0.70;0.47;;;23.10;38.60;20.50;94156.00;;;;10560310;27;74473;-65
2021/10/16 09:50:16;;;;;;;2.20;0.80;;;23.10;38.60;20.50;94166.00;;;;10561125;27;56910;-70
2021/10/16 09:55:19;;;;;;;1.10;0.60;;;23.10;38.80;20.50;94170.00;;;;10578535;27;46393;-64
2021/10/16 10:00:20;;;;;;;1.38;0.80;;;23.20;38.70;20.50;94165.00;;;;10577797;27;75553;-67
2021/10/16 10:05:21;;;;;;;1.33;0.70;;;23.20;38.60;20.50;94163.00;;;;10564847;27;47077;-68
2021/10/16 10:10:23;;;;;;;2.85;0.80;;;23.20;38.60;20.50;94168.00;;;;10561241;27;46435;-70
2021/10/16 10:15:24;;;;;;;2.08;0.70;;;23.20;38.70;20.50;94153.00;;;;10560164;27;56516;-63
2021/10/16 10:20:26;;;;;;;2.05;0.82;;;23.20;38.90;20.60;94144.00;;;;10559710;27;75316;-62
2021/10/16 10:25:27;;;;;;;2.47;0.90;;;23.20;38.90;20.50;94152.00;;;;10559615;27;75691;-62
2021/10/16 10:30:39;;;;;;;3.60;0.68;;;23.20;38.80;20.50;94161.00;;;;10560435;27;46158;-62
2021/10/16 10:35:39;;;;;;;1.20;0.70;;;23.20;38.90;20.50;94173.00;;;;10560277;27;45526;-62
2021/10/16 10:40:40;;;;;;;1.42;0.80;;;23.20;38.80;20.40;94154.00;;;;10575829;27;74009;-62
2021/10/16 10:45:41;;;;;;;2.15;0.57;;;23.10;38.80;20.40;94156.00;;;;10557945;27;74687;-62
2021/10/16 10:50:45;;;;;;;1.42;0.88;;;23.10;38.80;20.40;94152.00;;;;10557401;27;46532;-62
2021/10/16 10:56:07;;;;;;;2.35;0.80;;;23.10;38.90;20.40;94144.00;;;;10557436;27;53303;-63
2021/10/16 11:01:07;;;;;;;2.08;1.00;;;23.10;38.90;20.40;94155.00;;;;10556997;27;45423;-62
2021/10/16 11:06:08;;;;;;;3.20;0.82;;;23.10;38.90;20.40;94146.00;;;;10557737;27;75172;-62
2021/10/16 11:11:09;;;;;;;1.98;0.73;;;23.10;38.80;20.40;94142.00;;;;10559303;27;47330;-62
2021/10/16 11:16:10;;;;;;;4.55;0.80;;;23.10;38.80;20.40;94138.00;;;;10557075;27;53298;-62
2021/10/16 11:21:12;;;;;;;2.00;0.75;;;23.10;38.80;20.50;94133.00;;;;10557037;27;48080;-62
2021/10/16 11:26:15;;;;;;;1.60;0.90;;;23.20;38.80;20.50;94119.00;;;;10558301;27;47011;-62
2021/10/16 11:31:23;;;;;;;1.30;0.90;;;23.10;38.80;20.50;94115.00;;;;10556855;27;45519;-62
2021/10/16 11:36:24;;;;;;;1.90;0.90;;;23.20;38.90;20.50;94116.00;;;;10539537;27;48248;-62
2021/10/16 11:41:25;;;;;;;2.03;0.80;;;23.20;38.80;20.50;94113.00;;;;10555489;27;53567;-62
2021/10/16 11:46:25;;;;;;;1.73;0.80;;;23.20;38.80;20.50;94115.00;;;;10558646;27;45267;-63
2021/10/16 11:51:30;;;;;;;1.52;0.77;;;23.20;38.80;20.50;94101.00;;;;10559452;27;48622;-63
2021/10/16 11:56:31;;;;;;;3.72;0.98;;;23.20;38.80;20.50;94108.00;;;;10575145;27;47410;-62
2021/10/16 12:01:43;;;;;;;1.55;0.90;;;23.20;38.80;20.50;94094.00;;;;10559680;27;46359;-63
2021/10/16 12:06:45;;;;;;;1.65;0.90;;;23.20;38.80;20.50;94102.00;;;;10558172;27;46363;-63
2021/10/16 12:11:46;;;;;;;1.35;0.82;;;23.20;38.80;20.60;94073.00;;;;10557851;27;48109;-63
2021/10/16 12:16:47;;;;;;;2.35;1.00;;;23.20;38.90;20.60;94079.00;;;;10559091;27;45344;-62
2021/10/16 12:21:55;;;;;;;2.60;0.75;;;23.20;38.80;20.50;94068.00;;;;10558140;27;75488;-62
2021/10/16 12:27:09;;;;;;;1.60;0.90;;;23.20;38.80;20.60;94068.00;;;;10557859;27;45280;-62
2021/10/16 12:32:12;;;;;;;1.95;0.85;;;23.20;38.90;20.60;94081.00;;;;10557675;27;47477;-62
2021/10/16 12:37:13;;;;;;;1.33;0.80;;;23.20;38.90;20.60;94074.00;;;;10557610;27;45502;-62
2021/10/16 12:42:15;;;;;;;1.75;0.77;;;23.30;39.00;20.60;94079.00;;;;10555903;27;75541;-62
2021/10/16 12:47:24;;;;;;;1.70;0.85;;;23.20;38.90;20.60;94069.00;;;;10556653;27;45602;-62
2021/10/16 12:52:44;;;;;;;1.55;0.82;;;23.20;38.90;20.60;94071.00;;;;10556604;27;55345;-62
2021/10/16 12:58:05;;;;;;;2.40;0.98;;;23.30;39.00;20.60;94063.00;;;;10560686;27;45398;-63
2021/10/16 13:03:08;;;;;;;0.93;0.52;;;23.30;39.00;20.60;94060.00;;;;10546675;27;48231;-62
2021/10/16 13:08:12;;;;;;;1.38;0.75;;;23.30;39.00;20.60;94067.00;;;;10562846;27;46781;-62
2021/10/16 13:13:12;;;;;;;1.05;0.70;;;23.30;39.00;20.60;94055.00;;;;10564374;27;45498;-64
2021/10/16 13:18:13;;;;;;;2.60;0.95;;;23.30;39.00;20.60;94049.00;;;;10544821;27;75399;-63
2021/10/16 13:23:14;;;;;;;1.67;0.85;;;23.30;39.00;20.60;94058.00;;;;10545970;27;65938;-63
2021/10/16 13:28:14;;;;;;;1.77;0.73;;;23.30;39.00;20.60;94045.00;;;;10562792;27;73334;-63
2021/10/16 13:33:15;;;;;;;1.52;0.90;;;23.20;39.00;20.60;94040.00;;;;10563276;27;45532;-63
2021/10/16 13:38:16;;;;;;;0.98;0.70;;;23.30;39.10;20.50;94038.00;;;;10543740;27;73378;-63
2021/10/16 13:43:17;;;;;;;1.80;0.77;;;23.30;39.10;20.50;94045.00;;;;10561998;27;49483;-63
2021/10/16 13:48:18;;;;;;;1.25;0.70;;;23.20;39.10;20.50;94043.00;;;;10561748;27;45768;-63
2021/10/16 13:53:18;;;;;;;1.40;0.80;;;23.20;39.10;20.50;94042.00;;;;10562579;27;67382;-62
2021/10/16 13:58:19;;;;;;;1.23;0.82;;;23.20;39.10;20.50;94052.00;;;;10560750;27;75618;-62
2021/10/16 14:03:20;;;;;;;0.70;0.60;;;23.20;39.10;20.50;94053.00;;;;10561006;27;75691;-63
2021/10/16 14:08:22;;;;;;;1.20;0.77;;;23.20;39.10;20.50;94042.00;;;;10561348;27;73115;-63
2021/10/16 14:13:23;;;;;;;1.33;0.73;;;23.20;39.10;20.50;94034.00;;;;10561953;27;46145;-63
2021/10/16 14:18:24;;;;;;;2.03;0.77;;;23.20;39.20;20.50;94048.00;;;;10555153;27;46391;-64
2021/10/16 14:23:25;;;;;;;1.08;0.77;;;23.10;39.20;20.50;94059.00;;;;10559928;27;75516;-63
2021/10/16 14:28:29;;;;;;;0.80;0.60;;;23.20;39.30;20.50;94045.00;;;;10559656;27;75646;-63
2021/10/16 14:33:30;;;;;;;0.90;0.70;;;23.20;39.30;20.50;94043.00;;;;10560857;27;45368;-64
2021/10/16 14:38:31;;;;;;;1.60;0.90;;;23.20;39.30;20.50;94035.00;;;;10557333;27;46713;-65
2021/10/16 14:43:32;;;;;;;1.95;0.80;;;23.20;39.60;20.60;94039.00;;;;10557886;27;73865;-67
2021/10/16 14:48:33;;;;;;;2.58;0.70;;;23.20;39.90;20.60;94053.00;;;;10560541;27;45335;-67
2021/10/16 14:53:33;;;;;;;1.75;0.77;;;23.30;40.00;20.60;94036.00;;;;10601246;27;46305;-65
2021/10/16 14:58:34;;;;;;;7.97;0.70;;;23.20;40.30;20.60;94053.00;;;;10573777;27;75689;-62
2021/10/16 15:03:35;;;;;;;5.32;0.80;;;23.30;40.40;20.60;94055.00;;;;10561053;27;45340;-63
2021/10/16 15:08:35;;;;;;;1.10;0.50;;;23.30;40.20;20.60;94049.00;;;;10558272;27;75518;-65
2021/10/16 15:13:37;;;;;;;1.67;0.82;;;23.30;40.20;20.70;94058.00;;;;10541255;27;74520;-65
2021/10/16 15:18:39;;;;;;;2.50;0.70;;;23.30;40.30;20.70;94064.00;;;;10558441;27;46383;-64
2021/10/16 15:23:40;;;;;;;1.55;0.68;;;23.30;40.60;20.70;94058.00;;;;10542516;27;47068;-64
2021/10/16 15:28:43;;;;;;;4.57;0.77;;;23.40;40.50;20.70;94078.00;;;;10554554;27;47808;-66
2021/10/16 15:33:44;;;;;;;2.13;1.00;;;23.40;40.70;20.70;94060.00;;;;10566724;27;45656;-63
2021/10/16 15:38:45;;;;;;;1.98;0.70;;;23.30;40.80;20.70;94068.00;;;;10445209;27;45670;-63
2021/10/16 15:43:48;;;;;;;1.40;0.80;;;23.40;41.20;20.70;94082.00;;;;10467165;28;46420;-65
2021/10/16 15:48:48;;;;;;;2.47;0.77;;;23.40;41.20;20.70;94091.00;;;;10453693;28;47284;-63
2021/10/16 15:53:49;;;;;;;1.92;0.80;;;23.40;41.20;20.70;94074.00;;;;10466011;28;45412;-64
2021/10/16 15:58:51;;;;;;;2.80;0.80;;;23.40;40.90;20.70;94085.00;;;;10452198;28;46070;-65
2021/10/16 16:03:51;;;;;;;2.35;0.80;;;23.40;41.10;20.70;94084.00;;;;10429538;28;47330;-62
2021/10/16 16:08:52;;;;;;;1.17;0.80;;;23.50;41.40;20.70;94083.00;;;;10472819;28;75835;-61
2021/10/16 16:13:53;;;;;;;1.60;0.60;;;23.50;40.90;20.70;94073.00;;;;10471337;28;75301;-63
2021/10/16 16:18:54;;;;;;;1.95;0.77;;;23.50;41.00;20.70;94097.00;;;;10473642;28;49017;-63
2021/10/16 16:23:55;;;;;;;0.98;0.70;;;23.40;40.80;20.80;94096.00;;;;10452292;28;47172;-65
2021/10/16 16:28:56;;;;;;;1.85;0.82;;;23.40;40.80;20.70;94091.00;;;;10451685;28;48066;-64
2021/10/16 16:33:57;;;;;;;0.98;0.70;;;23.40;40.50;20.70;94087.00;;;;10480726;28;46999;-64
2021/10/16 16:38:58;;;;;;;1.65;0.77;;;23.40;40.40;20.70;94114.00;;;;10480564;28;45467;-64
2021/10/16 16:43:58;;;;;;;1.88;0.68;;;23.40;40.20;20.70;94127.00;;;;10462596;28;75333;-63
2021/10/16 16:48:59;;;;;;;0.65;0.50;;;23.40;40.20;20.70;94131.00;;;;10494928;28;64129;-64
2021/10/16 16:54:01;;;;;;;2.28;0.77;;;23.40;40.60;20.70;94118.00;;;;10464402;28;45645;-64
2021/10/16 16:59:02;;;;;;;0.80;0.60;;;23.40;40.60;20.70;94133.00;;;;10437038;28;47396;-64
2021/10/16 17:04:03;;;;;;;1.98;0.77;;;23.40;40.40;20.60;94134.00;;;;10437613;28;45334;-64
2021/10/16 17:09:07;;;;;;;1.27;0.82;;;23.30;40.20;20.60;94140.00;;;;10436962;28;45268;-63
2021/10/16 17:14:08;;;;;;;2.05;0.80;;;23.30;40.20;20.60;94151.00;;;;10437655;28;45352;-63
2021/10/16 17:19:09;;;;;;;1.63;0.90;;;23.30;40.20;20.60;94127.00;;;;10437261;28;45452;-64
2021/10/16 17:24:10;;;;;;;1.63;0.80;;;23.30;40.20;20.60;94134.00;;;;10461713;28;45424;-67
2021/10/16 17:29:11;;;;;;;1.40;0.90;;;23.20;40.10;20.60;94149.00;;;;10469359;28;74521;-61
2021/10/16 17:34:16;;;;;;;3.13;1.08;;;23.30;40.50;20.60;94145.00;;;;10494330;28;47101;-62
2021/10/16 17:39:16;;;;;;;4.28;1.10;;;23.30;40.40;20.70;94155.00;;;;10477000;28;45330;-62
2021/10/16 17:44:18;;;;;;;4.95;1.55;;;23.30;40.50;20.70;94171.00;;;;10438840;22;75107;-65
2021/10/16 17:49:19;;;;;;;2.30;1.08;;;23.40;40.60;20.70;94161.00;;;;10358740;28;47991;-65
2021/10/16 17:54:20;;;;;;;4.28;1.40;;;23.40;40.50;20.70;94155.00;;;;10390173;28;45484;-65
2021/10/16 17:59:21;;;;;;;2.83;1.27;;;23.40;40.40;20.70;94143.00;;;;10393316;28;75337;-64
2021/10/16 18:04:21;;;;;;;2.30;1.25;;;23.40;41.20;20.70;94152.00;;;;10375319;28;75700;-63
2021/10/16 18:09:22;;;;;;;3.17;1.40;;;23.40;40.50;20.70;94158.00;;;;10389541;28;75257;-64
2021/10/16 18:14:23;;;;;;;3.38;1.42;;;23.40;40.50;20.70;94147.00;;;;10408175;28;75455;-66
2021/10/16 18:19:24;;;;;;;4.03;1.55;;;23.40;40.40;20.70;94154.00;;;;10366869;28;56137;-64
2021/10/16 18:24:24;;;;;;;3.80;1.65;;;23.40;40.30;20.70;94169.00;;;;10364440;28;75682;-65
2021/10/16 18:29:25;;;;;;;3.30;1.88;;;23.40;40.30;20.70;94169.00;;;;10392494;28;48233;-66
2021/10/16 18:34:26;;;;;;;3.60;1.80;;;23.40;40.20;20.70;94162.00;;;;10393306;28;56497;-63
2021/10/16 18:39:26;;;;;;;3.60;1.85;;;23.40;40.40;20.70;94157.00;;;;10392819;28;74564;-64
2021/10/16 18:44:27;;;;;;;3.47;1.98;;;23.50;40.30;20.70;94166.00;;;;10393106;28;69318;-64
2021/10/16 18:49:28;;;;;;;2.53;1.60;;;23.40;40.20;20.70;94157.00;;;;10392471;28;45430;-64
2021/10/16 18:54:28;;;;;;;4.07;1.90;;;23.40;40.10;20.60;94164.00;;;;10374524;28;47166;-64
2021/10/16 18:59:29;;;;;;;4.07;1.80;;;23.30;40.10;20.60;94168.00;;;;10391462;28;75589;-64
2021/10/16 19:04:32;;;;;;;3.50;1.83;;;23.40;40.10;20.60;94146.00;;;;10392125;28;58860;-64
2021/10/16 19:09:33;;;;;;;3.17;1.73;;;23.20;40.00;20.60;94140.00;;;;10392752;28;45606;-65
2021/10/16 19:14:35;;;;;;;2.67;1.70;;;23.30;40.00;20.50;94149.00;;;;10393111;28;45283;-64
2021/10/16 19:19:36;;;;;;;3.58;1.90;;;23.30;40.10;20.50;94150.00;;;;10391860;28;75708;-64
2021/10/16 19:24:40;;;;;;;2.60;1.80;;;23.30;40.10;20.50;94151.00;;;;10392156;28;45592;-64
2021/10/16 19:29:41;;;;;;;3.88;2.10;;;23.20;40.00;20.50;94138.00;;;;10391046;28;52039;-64
2021/10/16 19:34:42;;;;;;;3.50;1.85;;;23.20;40.00;20.50;94142.00;;;;10374749;28;47668;-64
2021/10/16 19:39:43;;;;;;;3.75;1.98;;;23.20;40.00;20.50;94144.00;;;;10390411;28;70048;-64
2021/10/16 19:44:44;;;;;;;3.08;1.70;;;23.10;40.00;20.50;94129.00;;;;10391056;28;45472;-64
2021/10/16 19:49:45;;;;;;;2.60;1.60;;;23.20;40.00;20.40;94124.00;;;;10390390;28;74261;-64
2021/10/16 19:54:47;;;;;;;4.45;1.95;;;23.10;40.00;20.40;94123.00;;;;10390400;28;73372;-64
2021/10/16 19:59:49;;;;;;;3.67;1.70;;;23.10;40.00;20.40;94134.00;;;;10390290;28;45447;-64
2021/10/16 20:04:50;;;;;;;3.42;2.30;;;23.10;40.00;20.40;94148.00;;;;10374431;28;75779;-64
2021/10/16 20:09:51;;;;;;;2.90;1.85;;;23.10;40.00;20.40;94143.00;;;;10399284;28;45366;-64
2021/10/16 20:14:53;;;;;;;3.45;1.75;;;23.10;40.00;20.40;94150.00;;;;10397528;28;47854;-64
2021/10/16 20:19:54;;;;;;;2.80;1.63;;;23.10;40.00;20.40;94155.00;;;;10396399;28;46382;-64
2021/10/16 20:24:56;;;;;;;3.47;1.65;;;23.10;40.00;20.40;94148.00;;;;10396013;28;75617;-64
2021/10/16 20:29:57;;;;;;;2.53;1.60;;;23.10;40.00;20.40;94153.00;;;;10397577;28;46096;-64
2021/10/16 20:34:57;;;;;;;2.85;1.88;;;23.10;40.00;20.40;94159.00;;;;10380305;28;48800;-64
2021/10/16 20:39:58;;;;;;;3.78;1.83;;;23.10;40.00;20.40;94156.00;;;;10396042;28;55468;-64
2021/10/16 20:45:01;;;;;;;4.03;1.85;;;23.10;40.00;20.40;94144.00;;;;10395525;28;75826;-64
2021/10/16 20:50:04;;;;;;;3.83;1.80;;;23.10;39.90;20.30;94143.00;;;;10396988;28;45659;-64
2021/10/16 20:55:05;;;;;;;3.28;1.92;;;23.10;39.90;20.30;94156.00;;;;10378917;28;47116;-64
2021/10/16 21:00:08;;;;;;;2.35;1.40;;;23.10;39.90;20.30;94147.00;;;;10378550;28;54270;-64
2021/10/16 21:05:10;;;;;;;2.50;1.60;;;23.10;40.70;20.30;94144.00;;;;10394733;28;45388;-64
2021/10/16 21:10:12;;;;;;;3.40;1.70;;;23.10;40.00;20.30;94149.00;;;;10395166;28;45381;-64
2021/10/16 21:15:14;;;;;;;2.80;1.70;;;23.10;39.90;20.30;94166.00;;;;10390235;28;48349;-63
2021/10/16 21:20:16;;;;;;;3.95;1.70;;;23.10;39.90;20.30;94155.00;;;;10410672;28;45704;-64
2021/10/16 21:25:17;;;;;;;2.13;1.27;;;23.00;39.90;20.30;94152.00;;;;10397927;28;45357;-64
2021/10/16 21:30:17;;;;;;;2.17;1.38;;;23.00;39.90;20.30;94164.00;;;;10399788;28;75534;-64
2021/10/16 21:35:19;;;;;;;2.90;1.77;;;23.00;39.80;20.30;94167.00;;;;10391546;28;74264;-64
2021/10/16 21:40:20;;;;;;;2.97;1.77;;;23.00;39.90;20.30;94153.00;;;;10392638;28;45810;-64
2021/10/16 21:45:20;;;;;;;2.40;1.40;;;23.10;39.80;20.30;94149.00;;;;10393640;28;74526;-64
2021/10/16 21:50:22;;;;;;;2.28;1.38;;;23.00;39.80;20.30;94155.00;;;;10396774;28;45336;-63
2021/10/16 21:55:22;;;;;;;2.50;1.63;;;23.00;39.80;20.30;94152.00;;;;10395014;28;45533;-63
2021/10/16 22:00:41;;;;;;;2.90;1.65;;;23.10;39.80;20.30;94146.00;;;;10377643;28;47117;-64
2021/10/16 22:05:43;;;;;;;2.47;1.60;;;23.00;39.80;20.30;94149.00;;;;10395616;28;45309;-63